Aviation

Port-au-Prince

FTHA31 MTPP 011800
TAF MTPP 011730Z 0118/0218 12008KT 9999 FEW024 BECMG 0118/0120 30012KT PROB30 TEMPO 0121/0202 4000 TSRA SCT022CB BKN040 BECMG 0204/0206 VRB02KT NSW FM021300 10006KT 9999 FEW024 SCT050=


Cap-Haïtien

FTHA31 MTCH 011800
TAF MTCH 011735Z 0118/0218 01012KT 9999 SCT030CB PROB30 TEMPO 0200/0206 4800 -TSRA FM020600 17006KT 7000 SCT026 BECMG 0214/0218 04015KT=